Huffton, South Dakota
Current Conditions -  °F | °C
As of 5:53 PM on Wednesday 22 Oct 2014 (Local Time) from KABR Reporting Station
Broken Clouds Broken Clouds  
Wind Chill: 57°   Ceiling: 9500
Heat Index: 57°   Visibility: 10mi
Dew Point: 52°   Wind: 8mph
Humidity: 83%   Direction: 260°W
Pressure: 29.92"   Gusts: NA
Location:  45.6648°N, 98.0615°W
Report Text: KABR 222253Z AUTO 26007KT 10SM BKN095 14/11 A2992 RMK AO2 SLP132 T01390111
Loading
Personal Weather Stations






























Interactive Weather Map
Tropical Storm Tracking
New forecast layout! Learn more

10-Day Weather Forecast

Advertisements
Track Severe Weather on mobile